createdAt,value
2022-08-09T00:00:04.564Z,96047.56
2022-08-09T00:02:34.994Z,96040.81
2022-08-09T00:06:17.654Z,96043.81
2022-08-09T00:07:54.387Z,96045.50
2022-08-09T00:10:24.655Z,96045.38
2022-08-09T00:12:53.370Z,96042.44
2022-08-09T00:15:35.582Z,96050.25
2022-08-09T00:18:11.079Z,96049.16
2022-08-09T00:20:42.344Z,96052.69
2022-08-09T00:23:57.564Z,96058.50
2022-08-09T00:26:08.118Z,96053.53
2022-08-09T00:28:36.907Z,96052.06
2022-08-09T00:31:30.609Z,96049.41
2022-08-09T00:33:54.268Z,96047.66
2022-08-09T00:36:27.136Z,96051.09
2022-08-09T00:38:58.910Z,96043.50
2022-08-09T00:44:09.936Z,96047.50
2022-08-09T00:44:26.236Z,96056.44
2022-08-09T00:46:57.552Z,96055.78
2022-08-09T00:49:32.445Z,96057.78
2022-08-09T00:52:02.102Z,96053.00
2022-08-09T00:54:36.231Z,96051.53
2022-08-09T00:57:08.785Z,96055.66
2022-08-09T00:59:41.148Z,96058.00
2022-08-09T01:02:16.405Z,96052.22
2022-08-09T01:04:50.767Z,96049.75
2022-08-09T01:07:37.927Z,96053.53
2022-08-09T01:10:22.705Z,96059.50
2022-08-09T01:13:00.784Z,96052.59
2022-08-09T01:15:32.465Z,96059.34
2022-08-09T01:18:14.281Z,96058.69
2022-08-09T01:20:49.779Z,96055.09
2022-08-09T01:24:02.558Z,96057.88
2022-08-09T01:26:38.062Z,96061.34
2022-08-09T01:29:07.408Z,96049.50
2022-08-09T01:32:31.675Z,96055.94
2022-08-09T01:34:28.450Z,96057.56
2022-08-09T01:36:58.768Z,96055.44
2022-08-09T01:39:30.984Z,96050.78
2022-08-09T01:42:11.288Z,96050.47
2022-08-09T01:44:41.249Z,96059.38
2022-08-09T01:47:11.730Z,96054.91
2022-08-09T01:49:40.755Z,96049.00
2022-08-09T01:52:18.884Z,96050.47
2022-08-09T01:54:48.631Z,96059.19
2022-08-09T01:57:20.843Z,96049.16
2022-08-09T01:59:53.219Z,96045.50
2022-08-09T02:02:32.178Z,96054.44
2022-08-09T02:05:05.454Z,96060.03
2022-08-09T02:08:38.900Z,96057.38
2022-08-09T02:10:38.404Z,96072.06
2022-08-09T02:13:12.406Z,96062.66
2022-08-09T02:15:49.297Z,96072.72
2022-08-09T02:18:22.986Z,96066.13
2022-08-09T02:20:56.297Z,96065.44
2022-08-09T02:23:32.008Z,96079.78
2022-08-09T02:26:24.876Z,96063.16
2022-08-09T02:28:59.765Z,96066.28
2022-08-09T02:31:34.165Z,96078.00
2022-08-09T02:34:13.813Z,96067.28
2022-08-09T02:36:56.136Z,96071.59
2022-08-09T02:39:39.668Z,96076.34
2022-08-09T02:42:16.703Z,96077.16
2022-08-09T02:44:49.655Z,96074.88
2022-08-09T02:47:20.906Z,96066.28
2022-08-09T02:50:01.109Z,96074.22
2022-08-09T02:52:36.001Z,96071.22
2022-08-09T02:55:20.615Z,96071.03
2022-08-09T02:58:00.774Z,96078.94
2022-08-09T03:00:58.081Z,96076.47
2022-08-09T03:04:13.273Z,96071.38
2022-08-09T03:06:18.902Z,96076.00
2022-08-09T03:08:50.543Z,96071.34
2022-08-09T03:12:04.683Z,96074.28
2022-08-09T03:14:10.885Z,96071.94
2022-08-09T03:16:45.079Z,96068.53
2022-08-09T03:19:59.090Z,96064.91
2022-08-09T03:22:05.594Z,96061.31
2022-08-09T03:24:42.443Z,96059.31
2022-08-09T03:27:22.285Z,96059.78
2022-08-09T03:29:57.741Z,96062.94
2022-08-09T03:32:31.980Z,96068.69
2022-08-09T03:35:00.993Z,96070.72
2022-08-09T03:37:55.582Z,96073.19
2022-08-09T03:40:18.324Z,96077.25
2022-08-09T03:42:46.629Z,96077.25
2022-08-09T03:45:15.441Z,96067.72
2022-08-09T03:47:46.366Z,96070.38
2022-08-09T03:50:18.856Z,96074.50
2022-08-09T03:52:57.822Z,96082.22
2022-08-09T03:55:29.999Z,96081.22
2022-08-09T03:58:10.044Z,96083.53
2022-08-09T04:00:46.312Z,96097.03
2022-08-09T04:03:24.684Z,96083.72
2022-08-09T04:06:04.581Z,96092.41
2022-08-09T04:08:33.141Z,96098.84
2022-08-09T04:11:01.717Z,96095.56
2022-08-09T04:13:44.932Z,96095.22
2022-08-09T04:16:21.214Z,96093.13
2022-08-09T04:18:51.169Z,96103.56
2022-08-09T04:21:19.340Z,96103.03
2022-08-09T04:23:54.465Z,96099.25
2022-08-09T04:26:37.969Z,96098.59
2022-08-09T04:29:10.906Z,96097.78
2022-08-09T04:31:47.164Z,96104.28
2022-08-09T04:34:19.186Z,96107.06
2022-08-09T04:36:59.343Z,96112.09
2022-08-09T04:39:31.256Z,96110.25
2022-08-09T04:41:59.797Z,96108.28
2022-08-09T04:44:30.359Z,96109.91
2022-08-09T04:47:04.536Z,96110.88
2022-08-09T04:49:52.396Z,96119.78
2022-08-09T04:52:32.540Z,96125.16
2022-08-09T04:55:04.271Z,96123.31
2022-08-09T04:57:53.853Z,96118.38
2022-08-09T05:00:24.530Z,96123.31
2022-08-09T05:02:53.066Z,96121.84
2022-08-09T05:05:31.994Z,96120.81
2022-08-09T05:08:13.807Z,96126.25
2022-08-09T05:10:43.151Z,96127.44
2022-08-09T05:13:12.602Z,96130.09
2022-08-09T05:15:48.250Z,96131.81
2022-08-09T05:18:42.264Z,96135.72
2022-08-09T05:21:23.242Z,96135.75
2022-08-09T05:23:58.084Z,96133.19
2022-08-09T05:26:35.998Z,96139.66
2022-08-09T05:29:17.360Z,96124.38
2022-08-09T05:31:53.410Z,96135.03
2022-08-09T05:34:30.176Z,96138.50
2022-08-09T05:37:06.118Z,96139.25
2022-08-09T05:39:36.164Z,96139.50
2022-08-09T05:42:17.901Z,96138.38
2022-08-09T05:44:50.895Z,96138.38
2022-08-09T05:47:22.817Z,96138.59
2022-08-09T05:50:24.303Z,96138.56
2022-08-09T05:52:43.684Z,96143.31
2022-08-09T05:55:20.687Z,96133.34
2022-08-09T05:57:50.839Z,96144.03
2022-08-09T06:00:25.464Z,96132.97
2022-08-09T06:02:56.690Z,96142.81
2022-08-09T06:05:30.614Z,96139.66
2022-08-09T06:08:19.051Z,96140.66
2022-08-09T06:10:51.860Z,96143.00
2022-08-09T06:13:20.641Z,96137.25
2022-08-09T06:15:51.794Z,96149.34
2022-08-09T06:18:25.237Z,96142.09
2022-08-09T06:20:54.595Z,96145.38
2022-08-09T06:23:57.410Z,96147.56
2022-08-09T06:26:21.148Z,96149.72
2022-08-09T06:29:00.505Z,96138.00
2022-08-09T06:31:39.938Z,96146.25
2022-08-09T06:34:26.027Z,96142.25
2022-08-09T06:36:59.000Z,96147.41
2022-08-09T06:39:48.660Z,96138.41
2022-08-09T06:42:17.624Z,96148.41
2022-08-09T06:44:47.698Z,96145.75
2022-08-09T06:47:23.651Z,96144.13
2022-08-09T06:50:14.671Z,96146.47
2022-08-09T06:52:47.039Z,96152.28
2022-08-09T06:55:18.211Z,96151.53
2022-08-09T06:58:03.526Z,96151.00
2022-08-09T07:00:56.901Z,96151.41
2022-08-09T07:03:28.516Z,96154.72
2022-08-09T07:06:28.038Z,96164.84
2022-08-09T07:08:57.721Z,96156.78
2022-08-09T07:11:27.012Z,96159.81
2022-08-09T07:14:17.977Z,96162.06
2022-08-09T07:16:58.237Z,96160.19
2022-08-09T07:19:26.579Z,96162.56
2022-08-09T07:21:57.570Z,96155.63
2022-08-09T07:24:32.860Z,96159.28
2022-08-09T07:27:26.485Z,96171.31
2022-08-09T07:30:00.896Z,96160.56
2022-08-09T07:32:33.567Z,96167.16
2022-08-09T07:35:10.004Z,96167.16
2022-08-09T07:37:43.566Z,96159.34
2022-08-09T07:40:17.173Z,96166.28
2022-08-09T07:42:56.088Z,96169.41
2022-08-09T07:45:38.127Z,96167.13
2022-08-09T07:48:28.836Z,96167.50
2022-08-09T07:52:06.017Z,96174.13
2022-08-09T07:54:07.099Z,96174.28
2022-08-09T07:56:59.295Z,96178.09
2022-08-09T07:59:33.719Z,96184.66
2022-08-09T08:02:02.102Z,96186.47
2022-08-09T08:04:32.161Z,96189.47
2022-08-09T08:07:09.588Z,96197.91
2022-08-09T08:09:53.567Z,96194.59
2022-08-09T08:12:33.560Z,96188.34
2022-08-09T08:15:02.786Z,96187.69
2022-08-09T08:17:52.334Z,96186.38
2022-08-09T08:20:19.496Z,96191.50
2022-08-09T08:23:01.721Z,96188.94
2022-08-09T08:25:43.800Z,96184.28
2022-08-09T08:28:25.578Z,96185.84
2022-08-09T08:30:57.078Z,96187.16
2022-08-09T08:33:26.204Z,96176.63
2022-08-09T08:36:14.414Z,96189.03
2022-08-09T08:38:56.714Z,96191.28
2022-08-09T08:41:42.054Z,96196.63
2022-08-09T08:44:14.486Z,96187.03
2022-08-09T08:47:02.349Z,96194.75
2022-08-09T08:49:46.639Z,96187.31
2022-08-09T08:52:52.860Z,96187.56
2022-08-09T08:55:06.390Z,96186.22
2022-08-09T08:57:35.483Z,96190.19
2022-08-09T09:00:12.649Z,96190.72
2022-08-09T09:02:52.708Z,96190.00
2022-08-09T09:05:33.122Z,96175.06
2022-08-09T09:08:30.048Z,96187.69
2022-08-09T09:11:03.127Z,96178.09
2022-08-09T09:13:41.772Z,96183.72
2022-08-09T09:16:30.195Z,96172.78
2022-08-09T09:19:37.364Z,96172.50
2022-08-09T09:22:05.165Z,96176.31
2022-08-09T09:24:35.025Z,96177.50
2022-08-09T09:27:07.643Z,96183.81
2022-08-09T09:30:08.486Z,96176.63
2022-08-09T09:32:32.447Z,96179.81
2022-08-09T09:35:09.425Z,96171.41
2022-08-09T09:37:40.500Z,96182.56
2022-08-09T09:40:10.119Z,96189.22
2022-08-09T09:42:39.598Z,96192.22
2022-08-09T09:45:14.510Z,96190.59
2022-08-09T09:47:58.288Z,96194.06
2022-08-09T09:50:51.194Z,96173.88
2022-08-09T09:53:21.556Z,96181.47
2022-08-09T09:56:04.213Z,96184.47
2022-08-09T09:58:45.974Z,96185.44
2022-08-09T10:01:31.444Z,96178.53
2022-08-09T10:04:13.752Z,96185.19
2022-08-09T10:06:53.801Z,96169.44
2022-08-09T10:09:24.154Z,96180.44
2022-08-09T10:12:14.327Z,96176.75
2022-08-09T10:14:51.778Z,96186.13
2022-08-09T10:17:50.354Z,96175.22
2022-08-09T10:20:35.615Z,96171.75
2022-08-09T10:23:20.082Z,96179.69
2022-08-09T10:26:07.498Z,96182.00
2022-08-09T10:28:39.120Z,96176.84
2022-08-09T10:34:08.589Z,96168.84
2022-08-09T10:36:45.414Z,96164.81
2022-08-09T10:39:18.276Z,96165.38
2022-08-09T10:41:48.269Z,96167.19
2022-08-09T10:44:19.535Z,96167.56
2022-08-09T10:48:12.524Z,96163.34
2022-08-09T10:50:09.952Z,96166.75
2022-08-09T10:53:05.536Z,96155.19
2022-08-09T10:55:58.285Z,96158.19
2022-08-09T10:58:31.740Z,96157.06
2022-08-09T11:03:03.252Z,96158.25
2022-08-09T11:04:27.742Z,96154.28
2022-08-09T11:07:28.087Z,96141.25
2022-08-09T11:10:15.983Z,96147.66
2022-08-09T11:13:53.951Z,96144.84
2022-08-09T11:16:36.053Z,96135.50
2022-08-09T11:19:10.151Z,96147.66
2022-08-09T11:22:05.105Z,96140.72
2022-08-09T11:25:08.153Z,96156.63
2022-08-09T11:28:05.538Z,96151.34
2022-08-09T11:30:37.815Z,96151.44
2022-08-09T11:33:12.811Z,96151.31
2022-08-09T11:35:49.649Z,96161.69
2022-08-09T11:38:22.158Z,96156.72
2022-08-09T11:40:54.692Z,96149.84
2022-08-09T11:43:44.064Z,96149.22
2022-08-09T11:46:26.749Z,96151.78
2022-08-09T11:49:04.957Z,96155.44
2022-08-09T11:52:59.107Z,96159.91
2022-08-09T11:55:35.015Z,96161.53
2022-08-09T11:58:48.134Z,96153.25
2022-08-09T12:02:00.982Z,96142.97
2022-08-09T12:04:20.996Z,96145.53
2022-08-09T12:06:57.130Z,96144.91
2022-08-09T12:09:27.798Z,96146.91
2022-08-09T12:12:05.958Z,96145.75
2022-08-09T12:15:07.793Z,96147.47
2022-08-09T12:17:42.088Z,96135.72
2022-08-09T12:20:19.047Z,96132.13
2022-08-09T12:22:51.985Z,96130.81
2022-08-09T12:25:36.492Z,96132.19
2022-08-09T12:28:58.862Z,96138.63
2022-08-09T12:30:58.624Z,96137.53
2022-08-09T12:33:35.323Z,96128.56
2022-08-09T12:36:31.647Z,96131.63
2022-08-09T12:39:02.596Z,96127.25
2022-08-09T12:41:39.490Z,96130.19
2022-08-09T12:44:10.211Z,96133.06
2022-08-09T12:46:43.076Z,96120.53
2022-08-09T12:49:13.251Z,96127.13
2022-08-09T12:52:01.012Z,96114.78
2022-08-09T12:54:29.637Z,96117.78
2022-08-09T12:56:59.162Z,96117.97
2022-08-09T12:59:39.987Z,96125.03
2022-08-09T13:02:21.166Z,96118.41
2022-08-09T13:05:02.824Z,96113.44
2022-08-09T13:07:50.342Z,96111.00
2022-08-09T13:10:18.711Z,96111.00
2022-08-09T13:13:10.122Z,96112.66
2022-08-09T13:15:51.078Z,96115.22
2022-08-09T13:18:18.834Z,96112.69
2022-08-09T13:21:04.276Z,96109.69
2022-08-09T13:24:06.460Z,96113.81
2022-08-09T13:26:37.532Z,96106.81
2022-08-09T13:29:07.513Z,96113.94
2022-08-09T13:32:20.295Z,96110.28
2022-08-09T13:34:23.521Z,96107.69
2022-08-09T13:36:53.266Z,96103.13
2022-08-09T13:41:50.737Z,96094.53
2022-08-09T13:42:12.306Z,96101.44
2022-08-09T13:44:42.839Z,96094.91
2022-08-09T13:47:26.818Z,96093.56
2022-08-09T13:50:01.241Z,96102.63
2022-08-09T13:52:33.327Z,96101.84
2022-08-09T13:55:04.567Z,96095.59
2022-08-09T13:57:40.334Z,96092.19
2022-08-09T14:00:13.149Z,96100.97
2022-08-09T14:03:03.124Z,96096.09
2022-08-09T14:05:56.722Z,96099.16
2022-08-09T14:08:20.921Z,96108.03
2022-08-09T14:10:52.863Z,96108.44
2022-08-09T14:14:14.682Z,96102.69
2022-08-09T14:16:14.159Z,96093.97
2022-08-09T14:18:45.149Z,96088.91
2022-08-09T14:21:18.330Z,96105.81
2022-08-09T14:23:54.525Z,96098.19
2022-08-09T14:26:25.449Z,96095.22
2022-08-09T14:28:59.938Z,96091.88
2022-08-09T14:31:36.012Z,96090.06
2022-08-09T14:34:17.624Z,96088.63
2022-08-09T14:36:55.376Z,96091.28
2022-08-09T14:39:40.217Z,96096.53
2022-08-09T14:42:12.524Z,96100.88
2022-08-09T14:44:48.210Z,96099.91
2022-08-09T14:47:45.348Z,96096.69
2022-08-09T14:50:16.003Z,96087.16
2022-08-09T14:52:50.061Z,96096.94
2022-08-09T14:55:20.965Z,96095.50
2022-08-09T14:57:49.278Z,96095.44
2022-08-09T15:00:17.781Z,96088.69
2022-08-09T15:02:47.241Z,96097.97
2022-08-09T15:05:16.245Z,96086.00
2022-08-09T15:07:45.515Z,96081.47
2022-08-09T15:10:24.937Z,96087.41
2022-08-09T15:12:53.110Z,96085.56
2022-08-09T15:15:21.331Z,96090.25
2022-08-09T15:17:52.364Z,96081.63
2022-08-09T15:21:57.454Z,96084.28
2022-08-09T15:24:02.787Z,96085.91
2022-08-09T15:25:59.375Z,96084.22
2022-08-09T15:28:28.405Z,96072.56
2022-08-09T15:31:07.368Z,96076.53
2022-08-09T15:34:18.345Z,96072.84
2022-08-09T15:36:31.023Z,96071.78
2022-08-09T15:39:00.046Z,96076.09
2022-08-09T15:41:32.007Z,96072.75
2022-08-09T15:44:00.396Z,96067.47
2022-08-09T15:46:32.442Z,96075.75
2022-08-09T15:49:21.239Z,96068.66
2022-08-09T15:52:05.062Z,96068.31
2022-08-09T15:54:52.528Z,96069.03
2022-08-09T15:57:35.835Z,96070.50
2022-08-09T16:00:15.316Z,96077.72
2022-08-09T16:02:54.540Z,96076.94
2022-08-09T16:05:24.003Z,96075.75
2022-08-09T16:07:51.734Z,96077.28
2022-08-09T16:10:54.602Z,96072.16
2022-08-09T16:13:18.973Z,96079.91
2022-08-09T16:16:11.422Z,96077.66
2022-08-09T16:18:44.826Z,96073.34
2022-08-09T16:21:17.607Z,96066.88
2022-08-09T16:23:55.780Z,96069.91
2022-08-09T16:26:35.646Z,96067.66
2022-08-09T16:29:11.477Z,96063.97
2022-08-09T16:32:20.275Z,96069.44
2022-08-09T16:34:29.754Z,96063.31
2022-08-09T16:37:17.441Z,96065.88
2022-08-09T16:39:54.580Z,96065.75
2022-08-09T16:42:33.311Z,96067.25
2022-08-09T16:45:02.456Z,96065.38
2022-08-09T16:48:41.193Z,96068.97
2022-08-09T16:50:32.578Z,96066.16
2022-08-09T16:53:01.862Z,96064.47
2022-08-09T16:55:44.290Z,96063.91
2022-08-09T16:58:18.024Z,96066.63
2022-08-09T17:00:47.351Z,96064.81
2022-08-09T17:03:21.359Z,96068.38
2022-08-09T17:06:03.508Z,96067.31
2022-08-09T17:08:43.073Z,96068.44
2022-08-09T17:11:39.967Z,96068.28
2022-08-09T17:14:25.684Z,96082.06
2022-08-09T17:17:01.109Z,96072.50
2022-08-09T17:19:46.740Z,96076.47
2022-08-09T17:22:24.650Z,96077.09
2022-08-09T17:25:03.425Z,96079.78
2022-08-09T17:27:33.434Z,96077.94
2022-08-09T17:30:04.858Z,96083.69
2022-08-09T17:32:38.223Z,96082.69
2022-08-09T17:35:11.842Z,96090.31
2022-08-09T17:38:11.243Z,96088.03
2022-08-09T17:40:29.447Z,96086.59
2022-08-09T17:42:59.658Z,96083.94
2022-08-09T17:46:02.195Z,96080.63
2022-08-09T17:48:29.250Z,96086.22
2022-08-09T17:51:06.579Z,96092.34
2022-08-09T17:53:51.601Z,96091.69
2022-08-09T17:56:27.717Z,96096.63
2022-08-09T17:58:57.209Z,96098.25
2022-08-09T18:01:25.157Z,96097.63
2022-08-09T18:03:54.921Z,96096.19
2022-08-09T18:06:31.886Z,96103.38
2022-08-09T18:09:03.197Z,96098.63
2022-08-09T18:11:32.181Z,96107.78
2022-08-09T18:14:20.221Z,96110.22
2022-08-09T18:16:48.785Z,96106.72
2022-08-09T18:20:54.131Z,96112.47
2022-08-09T18:22:13.154Z,96124.91
2022-08-09T18:24:45.554Z,96120.78
2022-08-09T18:27:42.142Z,96112.44
2022-08-09T18:30:42.019Z,96115.03
2022-08-09T18:32:54.295Z,96121.75
2022-08-09T18:35:58.452Z,96120.69
2022-08-09T18:38:13.089Z,96124.34
2022-08-09T18:40:42.921Z,96121.88
2022-08-09T18:43:12.105Z,96122.00
2022-08-09T18:46:50.074Z,96122.59
2022-08-09T18:48:30.350Z,96131.75
2022-08-09T18:51:01.980Z,96138.06
2022-08-09T18:53:41.419Z,96140.31
2022-08-09T18:56:20.026Z,96138.03
2022-08-09T18:58:56.557Z,96138.56
2022-08-09T19:01:24.582Z,96137.31
2022-08-09T19:04:01.446Z,96149.78
2022-08-09T19:06:38.420Z,96145.31
2022-08-09T19:09:07.461Z,96146.31
2022-08-09T19:11:38.389Z,96143.94
2022-08-09T19:14:06.695Z,96147.84
2022-08-09T19:16:36.048Z,96155.28
2022-08-09T19:19:25.003Z,96150.81
2022-08-09T19:22:06.742Z,96166.97
2022-08-09T19:25:08.999Z,96163.41
2022-08-09T19:27:23.593Z,96167.47
2022-08-09T19:30:24.650Z,96163.41
2022-08-09T19:32:44.164Z,96158.41
2022-08-09T19:35:11.927Z,96176.03
2022-08-09T19:37:54.767Z,96169.06
2022-08-09T19:40:34.048Z,96163.31
2022-08-09T19:43:05.107Z,96162.72
2022-08-09T19:45:38.946Z,96157.16
2022-08-09T19:48:10.616Z,96159.41
2022-08-09T19:50:50.538Z,96166.31
2022-08-09T19:53:23.216Z,96172.06
2022-08-09T19:56:05.865Z,96165.63
2022-08-09T19:58:34.548Z,96176.25
2022-08-09T20:01:02.448Z,96171.84
2022-08-09T20:04:25.218Z,96171.13
2022-08-09T20:06:22.346Z,96171.94
2022-08-09T20:08:56.881Z,96181.13
2022-08-09T20:11:26.394Z,96175.13
2022-08-09T20:13:54.892Z,96172.69
2022-08-09T20:16:38.148Z,96183.22
2022-08-09T20:19:49.619Z,96177.94
2022-08-09T20:22:00.382Z,96182.59
2022-08-09T20:24:34.214Z,96170.88
2022-08-09T20:27:05.683Z,96177.44
2022-08-09T20:29:37.380Z,96179.56
2022-08-09T20:32:29.978Z,96174.94
2022-08-09T20:34:54.857Z,96186.09
2022-08-09T20:37:22.846Z,96183.81
2022-08-09T20:40:16.227Z,96183.66
2022-08-09T20:42:40.227Z,96177.22
2022-08-09T20:45:59.668Z,96180.44
2022-08-09T20:48:08.798Z,96184.66
2022-08-09T20:50:46.369Z,96180.19
2022-08-09T20:53:18.799Z,96190.88
2022-08-09T20:56:05.834Z,96191.84
2022-08-09T20:58:33.904Z,96190.44
2022-08-09T21:01:32.730Z,96196.59
2022-08-09T21:04:35.605Z,96184.50
2022-08-09T21:06:42.891Z,96192.75
2022-08-09T21:09:13.441Z,96193.41
2022-08-09T21:14:31.570Z,96198.88
2022-08-09T21:17:00.389Z,96198.03
2022-08-09T21:20:04.475Z,96198.88
2022-08-09T21:22:36.315Z,96188.00
2022-08-09T21:25:21.279Z,96192.19
2022-08-09T21:28:00.976Z,96184.25
2022-08-09T21:30:29.146Z,96189.66
2022-08-09T21:32:57.503Z,96188.63
2022-08-09T21:35:26.348Z,96184.78
2022-08-09T21:38:00.502Z,96182.88
2022-08-09T21:40:32.514Z,96179.41
2022-08-09T21:43:02.512Z,96180.22
2022-08-09T21:45:30.588Z,96185.63
2022-08-09T21:47:58.514Z,96187.00
2022-08-09T21:50:38.987Z,96187.34
2022-08-09T21:53:15.618Z,96185.72
2022-08-09T21:55:51.890Z,96190.91
2022-08-09T21:58:21.078Z,96189.41
2022-08-09T22:00:56.960Z,96191.16
2022-08-09T22:03:26.173Z,96181.38
2022-08-09T22:05:55.244Z,96194.34
2022-08-09T22:08:26.659Z,96198.06
2022-08-09T22:11:04.850Z,96198.44
2022-08-09T22:13:44.769Z,96193.19
2022-08-09T22:16:12.859Z,96186.56
2022-08-09T22:18:44.092Z,96189.38
2022-08-09T22:23:59.906Z,96180.88
2022-08-09T22:26:35.035Z,96191.34
2022-08-09T22:29:09.097Z,96178.94
2022-08-09T22:31:38.495Z,96185.31
2022-08-09T22:34:14.699Z,96188.94
2022-08-09T22:36:46.092Z,96179.91
2022-08-09T22:39:47.067Z,96180.09
2022-08-09T22:42:02.286Z,96178.16
2022-08-09T22:44:33.124Z,96168.56
2022-08-09T22:48:14.262Z,96172.09
2022-08-09T22:49:51.935Z,96170.94
2022-08-09T22:52:20.135Z,96162.63
2022-08-09T22:54:48.807Z,96163.31
2022-08-09T22:57:16.594Z,96162.97
2022-08-09T22:59:58.189Z,96159.50
2022-08-09T23:02:27.231Z,96156.50
2022-08-09T23:04:57.033Z,96155.44
2022-08-09T23:08:23.283Z,96155.44
2022-08-09T23:10:31.980Z,96156.44
2022-08-09T23:12:59.783Z,96156.72
2022-08-09T23:15:30.212Z,96147.44
2022-08-09T23:17:58.057Z,96142.28
2022-08-09T23:20:28.817Z,96144.84
2022-08-09T23:22:56.590Z,96142.94
2022-08-09T23:25:24.338Z,96138.75
2022-08-09T23:27:57.273Z,96138.19
2022-08-09T23:30:41.182Z,96134.91
2022-08-09T23:33:19.200Z,96142.69
2022-08-09T23:36:04.808Z,96142.84
2022-08-09T23:38:34.709Z,96134.09
2022-08-09T23:41:02.622Z,96141.03
2022-08-09T23:43:30.360Z,96138.75
2022-08-09T23:45:59.532Z,96134.78
2022-08-09T23:48:27.224Z,96137.00
2022-08-09T23:50:54.963Z,96140.59
2022-08-09T23:53:22.635Z,96146.16
2022-08-09T23:55:55.479Z,96142.25
2022-08-09T23:58:24.261Z,96146.72
